sensor_id;sensor_type;location;lat;lon;timestamp;P1;durP1;ratioP1;P2;durP2;ratioP2
76176;SDS011;64938;47.696;8.066;2023-05-10T00:00:24;1.20;;;1.10;;
76176;SDS011;64938;47.696;8.066;2023-05-10T00:02:50;1.50;;;1.40;;
76176;SDS011;64938;47.696;8.066;2023-05-10T00:05:16;1.73;;;1.63;;
76176;SDS011;64938;47.696;8.066;2023-05-10T00:07:41;2.00;;;1.73;;
76176;SDS011;64938;47.696;8.066;2023-05-10T00:10:10;2.50;;;1.70;;
76176;SDS011;64938;47.696;8.066;2023-05-10T00:12:36;1.80;;;1.63;;
76176;SDS011;64938;47.696;8.066;2023-05-10T00:15:02;1.60;;;1.50;;
76176;SDS011;64938;47.696;8.066;2023-05-10T00:17:28;1.80;;;1.70;;
76176;SDS011;64938;47.696;8.066;2023-05-10T00:19:54;1.97;;;1.77;;
76176;SDS011;64938;47.696;8.066;2023-05-10T00:22:20;1.90;;;1.80;;
76176;SDS011;64938;47.696;8.066;2023-05-10T00:24:45;2.40;;;1.60;;
76176;SDS011;64938;47.696;8.066;2023-05-10T00:27:11;1.77;;;1.67;;
76176;SDS011;64938;47.696;8.066;2023-05-10T00:29:37;1.60;;;1.47;;
76176;SDS011;64938;47.696;8.066;2023-05-10T00:32:02;1.70;;;1.60;;
76176;SDS011;64938;47.696;8.066;2023-05-10T00:34:28;1.43;;;1.30;;
76176;SDS011;64938;47.696;8.066;2023-05-10T00:36:54;1.40;;;1.30;;
76176;SDS011;64938;47.696;8.066;2023-05-10T00:39:19;1.30;;;1.20;;
76176;SDS011;64938;47.696;8.066;2023-05-10T00:41:45;2.03;;;1.40;;
76176;SDS011;64938;47.696;8.066;2023-05-10T00:44:11;1.53;;;1.43;;
76176;SDS011;64938;47.696;8.066;2023-05-10T00:46:36;1.47;;;1.30;;
76176;SDS011;64938;47.696;8.066;2023-05-10T00:49:02;1.17;;;0.90;;
76176;SDS011;64938;47.696;8.066;2023-05-10T00:51:28;1.10;;;1.10;;
76176;SDS011;64938;47.696;8.066;2023-05-10T00:53:53;1.67;;;1.57;;
76176;SDS011;64938;47.696;8.066;2023-05-10T00:56:21;1.70;;;1.60;;
76176;SDS011;64938;47.696;8.066;2023-05-10T00:58:48;1.77;;;1.67;;
76176;SDS011;64938;47.696;8.066;2023-05-10T01:01:14;2.30;;;2.17;;
76176;SDS011;64938;47.696;8.066;2023-05-10T01:03:40;2.57;;;2.37;;
76176;SDS011;64938;47.696;8.066;2023-05-10T01:06:07;2.70;;;2.50;;
76176;SDS011;64938;47.696;8.066;2023-05-10T01:08:32;2.63;;;2.43;;
76176;SDS011;64938;47.696;8.066;2023-05-10T01:10:58;2.57;;;2.37;;
76176;SDS011;64938;47.696;8.066;2023-05-10T01:15:57;6.07;;;2.90;;
76176;SDS011;64938;47.696;8.066;2023-05-10T01:18:23;2.93;;;2.73;;
76176;SDS011;64938;47.696;8.066;2023-05-10T01:20:53;2.90;;;2.70;;
76176;SDS011;64938;47.696;8.066;2023-05-10T01:32:27;5.57;;;3.20;;
76176;SDS011;64938;47.696;8.066;2023-05-10T01:34:56;3.37;;;2.87;;
76176;SDS011;64938;47.696;8.066;2023-05-10T01:37:45;3.27;;;3.07;;
76176;SDS011;64938;47.696;8.066;2023-05-10T01:42:46;3.33;;;3.13;;
76176;SDS011;64938;47.696;8.066;2023-05-10T01:45:24;3.00;;;2.80;;
76176;SDS011;64938;47.696;8.066;2023-05-10T01:47:58;3.27;;;3.00;;
76176;SDS011;64938;47.696;8.066;2023-05-10T01:50:30;3.70;;;3.40;;
76176;SDS011;64938;47.696;8.066;2023-05-10T01:52:57;3.33;;;3.00;;
76176;SDS011;64938;47.696;8.066;2023-05-10T01:55:25;3.80;;;3.17;;
76176;SDS011;64938;47.696;8.066;2023-05-10T01:57:56;3.70;;;3.40;;
76176;SDS011;64938;47.696;8.066;2023-05-10T02:00:33;3.03;;;2.73;;
76176;SDS011;64938;47.696;8.066;2023-05-10T02:02:59;3.03;;;2.80;;
76176;SDS011;64938;47.696;8.066;2023-05-10T02:05:27;3.03;;;2.20;;
76176;SDS011;64938;47.696;8.066;2023-05-10T02:07:54;2.70;;;2.10;;
76176;SDS011;64938;47.696;8.066;2023-05-10T02:10:20;2.50;;;2.30;;
76176;SDS011;64938;47.696;8.066;2023-05-10T02:12:47;2.70;;;1.90;;
76176;SDS011;64938;47.696;8.066;2023-05-10T02:15:15;1.70;;;1.60;;
76176;SDS011;64938;47.696;8.066;2023-05-10T02:17:44;1.33;;;1.23;;
76176;SDS011;64938;47.696;8.066;2023-05-10T02:20:12;1.50;;;1.40;;
76176;SDS011;64938;47.696;8.066;2023-05-10T02:22:38;2.37;;;1.30;;
76176;SDS011;64938;47.696;8.066;2023-05-10T02:25:04;1.80;;;1.70;;
76176;SDS011;64938;47.696;8.066;2023-05-10T02:27:31;1.60;;;1.50;;
76176;SDS011;64938;47.696;8.066;2023-05-10T02:29:56;1.60;;;1.50;;
76176;SDS011;64938;47.696;8.066;2023-05-10T02:32:24;2.10;;;1.90;;
76176;SDS011;64938;47.696;8.066;2023-05-10T02:34:53;1.80;;;1.70;;
76176;SDS011;64938;47.696;8.066;2023-05-10T02:37:20;2.47;;;2.27;;
76176;SDS011;64938;47.696;8.066;2023-05-10T02:39:47;2.30;;;2.10;;
76176;SDS011;64938;47.696;8.066;2023-05-10T02:42:16;2.17;;;1.97;;
76176;SDS011;64938;47.696;8.066;2023-05-10T02:44:43;2.67;;;2.47;;
76176;SDS011;64938;47.696;8.066;2023-05-10T02:47:12;3.93;;;2.80;;
76176;SDS011;64938;47.696;8.066;2023-05-10T02:49:38;3.10;;;2.80;;
76176;SDS011;64938;47.696;8.066;2023-05-10T02:52:04;3.30;;;3.00;;
76176;SDS011;64938;47.696;8.066;2023-05-10T02:54:33;3.23;;;2.90;;
76176;SDS011;64938;47.696;8.066;2023-05-10T02:57:05;3.70;;;2.77;;
76176;SDS011;64938;47.696;8.066;2023-05-10T02:59:32;3.90;;;3.60;;
76176;SDS011;64938;47.696;8.066;2023-05-10T03:01:59;4.50;;;3.13;;
76176;SDS011;64938;47.696;8.066;2023-05-10T03:04:25;3.27;;;2.97;;
76176;SDS011;64938;47.696;8.066;2023-05-10T03:06:51;3.00;;;2.80;;
76176;SDS011;64938;47.696;8.066;2023-05-10T03:09:17;2.97;;;2.70;;
76176;SDS011;64938;47.696;8.066;2023-05-10T03:22:53;3.60;;;3.30;;
76176;SDS011;64938;47.696;8.066;2023-05-10T03:25:21;3.10;;;2.90;;
76176;SDS011;64938;47.696;8.066;2023-05-10T03:27:48;4.87;;;3.37;;
76176;SDS011;64938;47.696;8.066;2023-05-10T03:30:14;3.53;;;3.23;;
76176;SDS011;64938;47.696;8.066;2023-05-10T03:32:40;2.30;;;2.20;;
76176;SDS011;64938;47.696;8.066;2023-05-10T03:35:07;1.80;;;1.70;;
76176;SDS011;64938;47.696;8.066;2023-05-10T03:37:33;2.00;;;1.90;;
76176;SDS011;64938;47.696;8.066;2023-05-10T03:39:59;2.07;;;1.87;;
76176;SDS011;64938;47.696;8.066;2023-05-10T03:42:25;2.00;;;1.87;;
76176;SDS011;64938;47.696;8.066;2023-05-10T03:44:50;1.70;;;1.60;;
76176;SDS011;64938;47.696;8.066;2023-05-10T03:47:16;1.80;;;1.70;;
76176;SDS011;64938;47.696;8.066;2023-05-10T03:49:42;1.67;;;1.57;;
76176;SDS011;64938;47.696;8.066;2023-05-10T03:52:07;1.47;;;1.37;;
76176;SDS011;64938;47.696;8.066;2023-05-10T03:54:36;1.63;;;1.30;;
76176;SDS011;64938;47.696;8.066;2023-05-10T03:57:01;1.63;;;1.53;;
76176;SDS011;64938;47.696;8.066;2023-05-10T03:59:28;1.90;;;1.80;;
76176;SDS011;64938;47.696;8.066;2023-05-10T04:01:53;2.50;;;1.90;;
76176;SDS011;64938;47.696;8.066;2023-05-10T04:04:19;2.30;;;2.10;;
76176;SDS011;64938;47.696;8.066;2023-05-10T04:06:46;3.13;;;2.27;;
76176;SDS011;64938;47.696;8.066;2023-05-10T04:09:12;2.00;;;1.87;;
76176;SDS011;64938;47.696;8.066;2023-05-10T04:11:38;2.43;;;2.23;;
76176;SDS011;64938;47.696;8.066;2023-05-10T04:14:03;3.53;;;2.10;;
76176;SDS011;64938;47.696;8.066;2023-05-10T04:16:29;2.00;;;1.90;;
76176;SDS011;64938;47.696;8.066;2023-05-10T04:18:54;2.40;;;2.20;;
76176;SDS011;64938;47.696;8.066;2023-05-10T04:21:20;2.30;;;2.10;;
76176;SDS011;64938;47.696;8.066;2023-05-10T04:23:46;2.20;;;2.00;;
76176;SDS011;64938;47.696;8.066;2023-05-10T04:26:12;2.10;;;2.00;;
76176;SDS011;64938;47.696;8.066;2023-05-10T04:28:38;2.70;;;2.27;;
76176;SDS011;64938;47.696;8.066;2023-05-10T04:31:05;2.30;;;2.10;;
76176;SDS011;64938;47.696;8.066;2023-05-10T04:33:32;1.90;;;1.80;;
76176;SDS011;64938;47.696;8.066;2023-05-10T04:35:58;1.63;;;1.53;;
76176;SDS011;64938;47.696;8.066;2023-05-10T04:38:24;1.90;;;1.80;;
76176;SDS011;64938;47.696;8.066;2023-05-10T04:40:49;3.87;;;1.97;;
76176;SDS011;64938;47.696;8.066;2023-05-10T04:43:15;2.90;;;1.70;;
76176;SDS011;64938;47.696;8.066;2023-05-10T04:45:41;2.63;;;1.90;;
76176;SDS011;64938;47.696;8.066;2023-05-10T04:48:07;2.43;;;2.20;;
76176;SDS011;64938;47.696;8.066;2023-05-10T04:50:32;3.87;;;2.00;;
76176;SDS011;64938;47.696;8.066;2023-05-10T04:52:58;2.13;;;2.00;;
76176;SDS011;64938;47.696;8.066;2023-05-10T04:55:24;2.13;;;1.97;;
76176;SDS011;64938;47.696;8.066;2023-05-10T04:57:50;5.30;;;2.50;;
76176;SDS011;64938;47.696;8.066;2023-05-10T05:00:15;4.03;;;2.17;;
76176;SDS011;64938;47.696;8.066;2023-05-10T05:02:48;2.80;;;2.60;;
76176;SDS011;64938;47.696;8.066;2023-05-10T05:05:14;3.33;;;2.80;;
76176;SDS011;64938;47.696;8.066;2023-05-10T05:07:39;4.80;;;2.83;;
76176;SDS011;64938;47.696;8.066;2023-05-10T05:10:06;3.77;;;3.10;;
76176;SDS011;64938;47.696;8.066;2023-05-10T05:12:32;3.27;;;2.77;;
76176;SDS011;64938;47.696;8.066;2023-05-10T05:14:58;3.03;;;2.73;;
76176;SDS011;64938;47.696;8.066;2023-05-10T05:17:27;3.23;;;3.03;;
76176;SDS011;64938;47.696;8.066;2023-05-10T05:19:58;3.37;;;3.10;;
76176;SDS011;64938;47.696;8.066;2023-05-10T05:22:24;3.20;;;2.90;;
76176;SDS011;64938;47.696;8.066;2023-05-10T05:24:54;3.80;;;3.50;;
76176;SDS011;64938;47.696;8.066;2023-05-10T05:27:20;3.67;;;3.37;;
76176;SDS011;64938;47.696;8.066;2023-05-10T05:29:50;4.80;;;3.30;;
76176;SDS011;64938;47.696;8.066;2023-05-10T05:32:17;2.70;;;2.50;;
76176;SDS011;64938;47.696;8.066;2023-05-10T05:34:44;2.70;;;2.50;;
76176;SDS011;64938;47.696;8.066;2023-05-10T05:37:14;1.43;;;1.33;;
76176;SDS011;64938;47.696;8.066;2023-05-10T05:39:40;2.83;;;1.40;;
76176;SDS011;64938;47.696;8.066;2023-05-10T05:42:06;1.90;;;1.80;;
76176;SDS011;64938;47.696;8.066;2023-05-10T05:44:34;1.60;;;1.50;;
76176;SDS011;64938;47.696;8.066;2023-05-10T05:46:59;1.73;;;1.63;;
76176;SDS011;64938;47.696;8.066;2023-05-10T05:49:25;1.50;;;1.40;;
76176;SDS011;64938;47.696;8.066;2023-05-10T05:51:50;1.40;;;1.30;;
76176;SDS011;64938;47.696;8.066;2023-05-10T05:54:16;1.40;;;1.30;;
76176;SDS011;64938;47.696;8.066;2023-05-10T05:56:42;1.10;;;1.00;;
76176;SDS011;64938;47.696;8.066;2023-05-10T05:59:09;3.60;;;1.20;;
76176;SDS011;64938;47.696;8.066;2023-05-10T06:01:38;0.97;;;0.87;;
76176;SDS011;64938;47.696;8.066;2023-05-10T06:04:04;0.77;;;0.77;;
76176;SDS011;64938;47.696;8.066;2023-05-10T06:06:30;1.07;;;0.83;;
76176;SDS011;64938;47.696;8.066;2023-05-10T06:08:57;1.97;;;0.77;;
76176;SDS011;64938;47.696;8.066;2023-05-10T06:11:23;1.60;;;1.10;;
76176;SDS011;64938;47.696;8.066;2023-05-10T06:13:49;1.10;;;1.00;;
76176;SDS011;64938;47.696;8.066;2023-05-10T06:16:16;1.13;;;1.00;;
76176;SDS011;64938;47.696;8.066;2023-05-10T06:18:42;1.53;;;1.00;;
76176;SDS011;64938;47.696;8.066;2023-05-10T06:21:08;8.90;;;4.13;;
76176;SDS011;64938;47.696;8.066;2023-05-10T06:23:34;1.27;;;1.00;;
76176;SDS011;64938;47.696;8.066;2023-05-10T06:26:01;2.90;;;1.03;;
76176;SDS011;64938;47.696;8.066;2023-05-10T06:28:26;1.50;;;1.40;;
76176;SDS011;64938;47.696;8.066;2023-05-10T06:30:52;1.60;;;1.50;;
76176;SDS011;64938;47.696;8.066;2023-05-10T06:33:18;2.50;;;1.70;;
76176;SDS011;64938;47.696;8.066;2023-05-10T06:35:44;1.90;;;1.80;;
76176;SDS011;64938;47.696;8.066;2023-05-10T06:38:11;2.57;;;2.10;;
76176;SDS011;64938;47.696;8.066;2023-05-10T06:40:36;2.23;;;2.00;;
76176;SDS011;64938;47.696;8.066;2023-05-10T06:43:02;2.50;;;2.30;;
76176;SDS011;64938;47.696;8.066;2023-05-10T06:45:29;2.10;;;1.90;;
76176;SDS011;64938;47.696;8.066;2023-05-10T06:47:55;2.17;;;1.97;;
76176;SDS011;64938;47.696;8.066;2023-05-10T06:50:21;2.33;;;2.13;;
76176;SDS011;64938;47.696;8.066;2023-05-10T06:52:49;2.60;;;2.40;;
76176;SDS011;64938;47.696;8.066;2023-05-10T06:55:15;2.60;;;2.30;;
76176;SDS011;64938;47.696;8.066;2023-05-10T06:57:40;5.50;;;2.80;;
76176;SDS011;64938;47.696;8.066;2023-05-10T07:00:07;3.33;;;3.00;;
76176;SDS011;64938;47.696;8.066;2023-05-10T07:02:34;3.63;;;2.77;;
76176;SDS011;64938;47.696;8.066;2023-05-10T07:05:01;3.20;;;2.87;;
76176;SDS011;64938;47.696;8.066;2023-05-10T07:07:27;2.67;;;2.33;;
76176;SDS011;64938;47.696;8.066;2023-05-10T07:09:53;3.50;;;2.30;;
76176;SDS011;64938;47.696;8.066;2023-05-10T07:12:18;2.87;;;2.50;;
76176;SDS011;64938;47.696;8.066;2023-05-10T07:14:44;2.67;;;2.47;;
76176;SDS011;64938;47.696;8.066;2023-05-10T07:17:10;4.83;;;2.60;;
76176;SDS011;64938;47.696;8.066;2023-05-10T07:19:36;4.03;;;3.00;;
76176;SDS011;64938;47.696;8.066;2023-05-10T07:22:01;3.50;;;2.90;;
76176;SDS011;64938;47.696;8.066;2023-05-10T07:24:27;3.73;;;2.63;;
76176;SDS011;64938;47.696;8.066;2023-05-10T07:26:53;3.43;;;2.70;;
76176;SDS011;64938;47.696;8.066;2023-05-10T07:29:18;2.20;;;1.93;;
76176;SDS011;64938;47.696;8.066;2023-05-10T07:31:44;3.20;;;2.77;;
76176;SDS011;64938;47.696;8.066;2023-05-10T07:34:10;3.30;;;2.63;;
76176;SDS011;64938;47.696;8.066;2023-05-10T07:36:35;2.50;;;2.30;;
76176;SDS011;64938;47.696;8.066;2023-05-10T07:39:01;2.60;;;2.40;;
76176;SDS011;64938;47.696;8.066;2023-05-10T07:41:27;2.90;;;2.57;;
76176;SDS011;64938;47.696;8.066;2023-05-10T07:43:53;3.30;;;1.93;;
76176;SDS011;64938;47.696;8.066;2023-05-10T07:46:19;2.80;;;2.47;;
76176;SDS011;64938;47.696;8.066;2023-05-10T07:48:45;4.13;;;2.30;;
76176;SDS011;64938;47.696;8.066;2023-05-10T07:51:11;2.60;;;2.40;;
76176;SDS011;64938;47.696;8.066;2023-05-10T07:53:37;2.50;;;2.23;;
76176;SDS011;64938;47.696;8.066;2023-05-10T07:56:20;4.30;;;2.30;;
76176;SDS011;64938;47.696;8.066;2023-05-10T07:58:50;4.50;;;3.00;;
76176;SDS011;64938;47.696;8.066;2023-05-10T08:01:17;3.90;;;2.30;;
76176;SDS011;64938;47.696;8.066;2023-05-10T08:03:42;2.10;;;2.00;;
76176;SDS011;64938;47.696;8.066;2023-05-10T08:06:08;2.67;;;2.20;;
76176;SDS011;64938;47.696;8.066;2023-05-10T08:08:34;2.37;;;2.10;;
76176;SDS011;64938;47.696;8.066;2023-05-10T08:10:59;2.47;;;1.83;;
76176;SDS011;64938;47.696;8.066;2023-05-10T08:13:25;4.50;;;1.90;;
76176;SDS011;64938;47.696;8.066;2023-05-10T08:15:51;2.50;;;1.83;;
76176;SDS011;64938;47.696;8.066;2023-05-10T08:18:18;2.37;;;2.17;;
76176;SDS011;64938;47.696;8.066;2023-05-10T08:20:44;2.70;;;1.90;;
76176;SDS011;64938;47.696;8.066;2023-05-10T08:23:14;3.93;;;2.20;;
76176;SDS011;64938;47.696;8.066;2023-05-10T08:25:40;2.30;;;2.10;;
76176;SDS011;64938;47.696;8.066;2023-05-10T08:28:06;3.17;;;2.37;;
76176;SDS011;64938;47.696;8.066;2023-05-10T08:30:31;2.97;;;2.30;;
76176;SDS011;64938;47.696;8.066;2023-05-10T08:32:57;4.53;;;2.40;;
76176;SDS011;64938;47.696;8.066;2023-05-10T08:35:22;2.70;;;2.50;;
76176;SDS011;64938;47.696;8.066;2023-05-10T08:37:49;4.33;;;2.50;;
76176;SDS011;64938;47.696;8.066;2023-05-10T08:40:15;5.20;;;2.53;;
76176;SDS011;64938;47.696;8.066;2023-05-10T08:42:43;2.80;;;2.23;;
76176;SDS011;64938;47.696;8.066;2023-05-10T08:45:13;3.37;;;2.50;;
76176;SDS011;64938;47.696;8.066;2023-05-10T08:47:38;3.47;;;3.13;;
76176;SDS011;64938;47.696;8.066;2023-05-10T08:50:04;3.50;;;3.00;;
76176;SDS011;64938;47.696;8.066;2023-05-10T08:52:32;2.80;;;2.43;;
76176;SDS011;64938;47.696;8.066;2023-05-10T08:54:58;5.83;;;2.33;;
76176;SDS011;64938;47.696;8.066;2023-05-10T08:57:23;2.63;;;2.20;;
76176;SDS011;64938;47.696;8.066;2023-05-10T08:59:49;2.00;;;1.80;;
76176;SDS011;64938;47.696;8.066;2023-05-10T09:02:15;3.67;;;2.30;;
76176;SDS011;64938;47.696;8.066;2023-05-10T09:04:41;2.17;;;1.97;;
76176;SDS011;64938;47.696;8.066;2023-05-10T09:07:07;3.30;;;2.47;;
76176;SDS011;64938;47.696;8.066;2023-05-10T09:09:33;9.37;;;2.90;;
76176;SDS011;64938;47.696;8.066;2023-05-10T09:11:58;3.97;;;2.50;;
76176;SDS011;64938;47.696;8.066;2023-05-10T09:14:24;2.43;;;2.23;;
76176;SDS011;64938;47.696;8.066;2023-05-10T09:16:50;2.50;;;2.30;;
76176;SDS011;64938;47.696;8.066;2023-05-10T09:19:16;3.33;;;2.77;;
76176;SDS011;64938;47.696;8.066;2023-05-10T09:21:42;4.20;;;2.80;;
76176;SDS011;64938;47.696;8.066;2023-05-10T09:24:07;2.73;;;2.30;;
76176;SDS011;64938;47.696;8.066;2023-05-10T09:26:34;4.37;;;2.70;;
76176;SDS011;64938;47.696;8.066;2023-05-10T09:29:01;5.47;;;2.90;;
76176;SDS011;64938;47.696;8.066;2023-05-10T09:31:44;7.60;;;2.73;;
76176;SDS011;64938;47.696;8.066;2023-05-10T09:34:16;4.10;;;2.47;;
76176;SDS011;64938;47.696;8.066;2023-05-10T09:36:59;3.20;;;2.90;;
76176;SDS011;64938;47.696;8.066;2023-05-10T09:39:30;3.20;;;2.73;;
76176;SDS011;64938;47.696;8.066;2023-05-10T09:41:58;4.00;;;2.57;;
76176;SDS011;64938;47.696;8.066;2023-05-10T09:44:26;2.80;;;2.30;;
76176;SDS011;64938;47.696;8.066;2023-05-10T09:46:52;4.13;;;2.20;;
76176;SDS011;64938;47.696;8.066;2023-05-10T09:49:18;2.30;;;1.80;;
76176;SDS011;64938;47.696;8.066;2023-05-10T09:51:45;2.10;;;1.80;;
76176;SDS011;64938;47.696;8.066;2023-05-10T09:54:12;2.20;;;1.97;;
76176;SDS011;64938;47.696;8.066;2023-05-10T09:56:41;2.53;;;1.87;;
76176;SDS011;64938;47.696;8.066;2023-05-10T09:59:08;5.20;;;1.93;;
76176;SDS011;64938;47.696;8.066;2023-05-10T10:01:37;3.90;;;2.07;;
76176;SDS011;64938;47.696;8.066;2023-05-10T10:04:09;3.03;;;1.60;;
76176;SDS011;64938;47.696;8.066;2023-05-10T10:06:35;2.73;;;1.63;;
76176;SDS011;64938;47.696;8.066;2023-05-10T10:09:02;3.83;;;1.80;;
76176;SDS011;64938;47.696;8.066;2023-05-10T10:11:28;2.90;;;1.80;;
76176;SDS011;64938;47.696;8.066;2023-05-10T10:13:54;3.73;;;1.80;;
76176;SDS011;64938;47.696;8.066;2023-05-10T10:16:20;1.63;;;1.30;;
76176;SDS011;64938;47.696;8.066;2023-05-10T10:18:46;6.77;;;1.83;;
76176;SDS011;64938;47.696;8.066;2023-05-10T10:21:13;1.90;;;1.30;;
76176;SDS011;64938;47.696;8.066;2023-05-10T10:23:39;3.93;;;1.80;;
76176;SDS011;64938;47.696;8.066;2023-05-10T10:26:04;4.83;;;1.53;;
76176;SDS011;64938;47.696;8.066;2023-05-10T10:34:28;3.20;;;1.57;;
76176;SDS011;64938;47.696;8.066;2023-05-10T10:36:55;3.33;;;1.60;;
76176;SDS011;64938;47.696;8.066;2023-05-10T10:39:21;4.83;;;1.57;;
76176;SDS011;64938;47.696;8.066;2023-05-10T10:41:50;2.80;;;1.80;;
76176;SDS011;64938;47.696;8.066;2023-05-10T10:44:25;2.00;;;1.30;;
76176;SDS011;64938;47.696;8.066;2023-05-10T10:54:49;2.13;;;1.50;;
76176;SDS011;64938;47.696;8.066;2023-05-10T10:57:18;1.80;;;1.43;;
76176;SDS011;64938;47.696;8.066;2023-05-10T10:59:44;4.33;;;1.40;;
76176;SDS011;64938;47.696;8.066;2023-05-10T11:07:53;4.23;;;1.40;;
76176;SDS011;64938;47.696;8.066;2023-05-10T11:10:21;3.33;;;1.43;;
76176;SDS011;64938;47.696;8.066;2023-05-10T11:12:51;4.30;;;1.33;;
76176;SDS011;64938;47.696;8.066;2023-05-10T11:15:19;2.10;;;1.37;;
76176;SDS011;64938;47.696;8.066;2023-05-10T11:17:47;3.43;;;1.37;;
76176;SDS011;64938;47.696;8.066;2023-05-10T11:20:17;2.43;;;1.50;;
76176;SDS011;64938;47.696;8.066;2023-05-10T11:25:17;3.53;;;1.33;;
76176;SDS011;64938;47.696;8.066;2023-05-10T11:27:43;5.27;;;1.57;;
76176;SDS011;64938;47.696;8.066;2023-05-10T11:30:10;2.77;;;1.40;;
76176;SDS011;64938;47.696;8.066;2023-05-10T11:32:37;3.77;;;1.67;;
76176;SDS011;64938;47.696;8.066;2023-05-10T11:35:07;2.10;;;1.23;;
76176;SDS011;64938;47.696;8.066;2023-05-10T11:37:34;2.10;;;1.67;;
76176;SDS011;64938;47.696;8.066;2023-05-10T11:39:59;2.97;;;1.30;;
76176;SDS011;64938;47.696;8.066;2023-05-10T11:42:25;3.43;;;1.43;;
76176;SDS011;64938;47.696;8.066;2023-05-10T11:44:52;1.80;;;1.40;;
76176;SDS011;64938;47.696;8.066;2023-05-10T11:47:17;3.40;;;1.60;;
76176;SDS011;64938;47.696;8.066;2023-05-10T11:49:44;3.00;;;1.50;;
76176;SDS011;64938;47.696;8.066;2023-05-10T11:52:10;2.53;;;1.63;;
76176;SDS011;64938;47.696;8.066;2023-05-10T11:54:37;2.20;;;1.50;;
76176;SDS011;64938;47.696;8.066;2023-05-10T11:57:02;5.93;;;1.70;;
76176;SDS011;64938;47.696;8.066;2023-05-10T11:59:28;3.60;;;1.53;;
76176;SDS011;64938;47.696;8.066;2023-05-10T12:01:54;3.10;;;1.83;;
76176;SDS011;64938;47.696;8.066;2023-05-10T12:04:20;3.27;;;1.57;;
76176;SDS011;64938;47.696;8.066;2023-05-10T12:06:46;3.23;;;1.43;;
76176;SDS011;64938;47.696;8.066;2023-05-10T12:09:12;5.17;;;1.60;;
76176;SDS011;64938;47.696;8.066;2023-05-10T12:11:40;3.80;;;1.47;;
76176;SDS011;64938;47.696;8.066;2023-05-10T12:14:06;3.30;;;2.10;;
76176;SDS011;64938;47.696;8.066;2023-05-10T12:16:33;3.00;;;1.83;;
76176;SDS011;64938;47.696;8.066;2023-05-10T12:18:59;3.03;;;1.87;;
76176;SDS011;64938;47.696;8.066;2023-05-10T12:21:27;10.70;;;2.27;;
76176;SDS011;64938;47.696;8.066;2023-05-10T12:23:53;5.53;;;1.60;;
76176;SDS011;64938;47.696;8.066;2023-05-10T12:26:21;4.00;;;2.10;;
76176;SDS011;64938;47.696;8.066;2023-05-10T12:28:48;2.03;;;1.60;;
76176;SDS011;64938;47.696;8.066;2023-05-10T12:31:13;4.00;;;2.13;;
76176;SDS011;64938;47.696;8.066;2023-05-10T12:33:40;2.10;;;1.90;;
76176;SDS011;64938;47.696;8.066;2023-05-10T12:36:09;3.10;;;1.90;;
76176;SDS011;64938;47.696;8.066;2023-05-10T12:38:36;3.70;;;1.87;;
76176;SDS011;64938;47.696;8.066;2023-05-10T12:41:07;5.50;;;1.60;;
76176;SDS011;64938;47.696;8.066;2023-05-10T12:43:35;4.53;;;2.00;;
76176;SDS011;64938;47.696;8.066;2023-05-10T12:46:05;2.63;;;1.67;;
76176;SDS011;64938;47.696;8.066;2023-05-10T12:48:31;1.93;;;1.60;;
76176;SDS011;64938;47.696;8.066;2023-05-10T12:50:59;3.07;;;1.67;;
76176;SDS011;64938;47.696;8.066;2023-05-10T12:53:25;2.53;;;1.97;;
76176;SDS011;64938;47.696;8.066;2023-05-10T12:55:51;2.20;;;1.43;;
76176;SDS011;64938;47.696;8.066;2023-05-10T12:58:17;2.47;;;1.50;;
76176;SDS011;64938;47.696;8.066;2023-05-10T13:00:42;2.87;;;1.43;;
76176;SDS011;64938;47.696;8.066;2023-05-10T13:03:08;3.50;;;1.23;;
76176;SDS011;64938;47.696;8.066;2023-05-10T13:05:35;3.00;;;1.23;;
76176;SDS011;64938;47.696;8.066;2023-05-10T13:08:01;2.70;;;1.37;;
76176;SDS011;64938;47.696;8.066;2023-05-10T13:10:28;4.23;;;1.73;;
76176;SDS011;64938;47.696;8.066;2023-05-10T13:12:57;1.73;;;1.00;;
76176;SDS011;64938;47.696;8.066;2023-05-10T13:15:23;3.90;;;1.67;;
76176;SDS011;64938;47.696;8.066;2023-05-10T13:17:49;1.70;;;1.60;;
76176;SDS011;64938;47.696;8.066;2023-05-10T13:20:14;2.87;;;1.60;;
76176;SDS011;64938;47.696;8.066;2023-05-10T13:22:41;2.70;;;1.60;;
76176;SDS011;64938;47.696;8.066;2023-05-10T13:25:07;3.47;;;1.67;;
76176;SDS011;64938;47.696;8.066;2023-05-10T13:27:33;1.23;;;1.13;;
76176;SDS011;64938;47.696;8.066;2023-05-10T13:29:59;1.70;;;1.20;;
76176;SDS011;64938;47.696;8.066;2023-05-10T13:32:25;2.67;;;1.40;;
76176;SDS011;64938;47.696;8.066;2023-05-10T13:34:51;3.00;;;1.17;;
76176;SDS011;64938;47.696;8.066;2023-05-10T13:37:17;1.27;;;1.17;;
76176;SDS011;64938;47.696;8.066;2023-05-10T13:39:48;3.00;;;1.40;;
76176;SDS011;64938;47.696;8.066;2023-05-10T13:42:13;1.87;;;1.10;;
76176;SDS011;64938;47.696;8.066;2023-05-10T13:44:40;2.20;;;1.20;;
76176;SDS011;64938;47.696;8.066;2023-05-10T13:47:06;1.20;;;0.93;;
76176;SDS011;64938;47.696;8.066;2023-05-10T13:49:36;1.20;;;1.10;;
76176;SDS011;64938;47.696;8.066;2023-05-10T13:52:01;1.20;;;0.90;;
76176;SDS011;64938;47.696;8.066;2023-05-10T13:54:32;2.20;;;0.97;;
76176;SDS011;64938;47.696;8.066;2023-05-10T13:56:59;1.30;;;1.00;;
76176;SDS011;64938;47.696;8.066;2023-05-10T13:59:25;1.63;;;0.90;;
76176;SDS011;64938;47.696;8.066;2023-05-10T14:01:50;1.23;;;1.00;;
76176;SDS011;64938;47.696;8.066;2023-05-10T14:04:16;1.57;;;0.93;;
76176;SDS011;64938;47.696;8.066;2023-05-10T14:06:42;2.60;;;0.90;;
76176;SDS011;64938;47.696;8.066;2023-05-10T14:09:07;1.47;;;0.80;;
76176;SDS011;64938;47.696;8.066;2023-05-10T14:11:33;0.73;;;0.73;;
76176;SDS011;64938;47.696;8.066;2023-05-10T14:13:59;1.20;;;0.90;;
76176;SDS011;64938;47.696;8.066;2023-05-10T14:16:24;1.37;;;0.70;;
76176;SDS011;64938;47.696;8.066;2023-05-10T14:18:54;0.80;;;0.80;;
76176;SDS011;64938;47.696;8.066;2023-05-10T14:21:24;1.43;;;0.97;;
76176;SDS011;64938;47.696;8.066;2023-05-10T14:23:58;0.90;;;0.70;;
76176;SDS011;64938;47.696;8.066;2023-05-10T14:26:24;2.70;;;1.03;;
76176;SDS011;64938;47.696;8.066;2023-05-10T14:28:50;1.00;;;0.80;;
76176;SDS011;64938;47.696;8.066;2023-05-10T14:31:15;1.20;;;1.00;;
76176;SDS011;64938;47.696;8.066;2023-05-10T14:33:41;2.70;;;0.90;;
76176;SDS011;64938;47.696;8.066;2023-05-10T14:36:08;1.50;;;1.00;;
76176;SDS011;64938;47.696;8.066;2023-05-10T14:38:33;1.00;;;0.83;;
76176;SDS011;64938;47.696;8.066;2023-05-10T14:40:59;2.03;;;1.03;;
76176;SDS011;64938;47.696;8.066;2023-05-10T14:43:25;1.00;;;0.77;;
76176;SDS011;64938;47.696;8.066;2023-05-10T14:45:59;1.13;;;1.00;;
76176;SDS011;64938;47.696;8.066;2023-05-10T14:48:25;1.13;;;0.97;;
76176;SDS011;64938;47.696;8.066;2023-05-10T14:50:50;1.83;;;0.90;;
76176;SDS011;64938;47.696;8.066;2023-05-10T14:53:17;4.93;;;1.07;;
76176;SDS011;64938;47.696;8.066;2023-05-10T14:55:43;1.00;;;0.90;;
76176;SDS011;64938;47.696;8.066;2023-05-10T14:58:09;3.13;;;1.10;;
76176;SDS011;64938;47.696;8.066;2023-05-10T15:00:35;2.43;;;1.20;;
76176;SDS011;64938;47.696;8.066;2023-05-10T15:03:01;1.17;;;0.90;;
76176;SDS011;64938;47.696;8.066;2023-05-10T15:05:27;1.80;;;0.80;;
76176;SDS011;64938;47.696;8.066;2023-05-10T15:07:53;1.13;;;0.80;;
76176;SDS011;64938;47.696;8.066;2023-05-10T15:10:19;1.23;;;0.80;;
76176;SDS011;64938;47.696;8.066;2023-05-10T15:12:44;1.43;;;0.80;;
76176;SDS011;64938;47.696;8.066;2023-05-10T15:15:10;0.70;;;0.60;;
76176;SDS011;64938;47.696;8.066;2023-05-10T15:17:35;1.03;;;0.73;;
76176;SDS011;64938;47.696;8.066;2023-05-10T15:20:02;1.10;;;1.00;;
76176;SDS011;64938;47.696;8.066;2023-05-10T15:22:30;4.30;;;0.80;;
76176;SDS011;64938;47.696;8.066;2023-05-10T15:24:57;2.03;;;0.97;;
76176;SDS011;64938;47.696;8.066;2023-05-10T15:27:24;0.97;;;0.87;;
76176;SDS011;64938;47.696;8.066;2023-05-10T15:29:50;0.90;;;0.67;;
76176;SDS011;64938;47.696;8.066;2023-05-10T15:32:16;1.70;;;1.00;;